createdAt,value
2022-10-05T00:13:51.199Z,90.0
2022-10-05T00:27:51.226Z,90.0
2022-10-05T00:41:51.204Z,90.0
2022-10-05T00:55:51.265Z,91.0
2022-10-05T01:06:49.628Z,91.0
2022-10-05T01:18:07.530Z,90.0
2022-10-05T01:26:19.689Z,90.0
2022-10-05T01:40:19.690Z,89.0
2022-10-05T01:54:19.690Z,88.0
2022-10-05T02:08:19.690Z,89.0
2022-10-05T02:22:19.680Z,90.0
2022-10-05T02:36:19.684Z,91.0
2022-10-05T02:50:19.662Z,91.0
2022-10-05T03:04:19.721Z,92.0
2022-10-05T03:18:19.753Z,92.0
2022-10-05T03:32:19.717Z,90.0
2022-10-05T03:46:19.730Z,89.0
2022-10-05T04:00:19.730Z,90.0
2022-10-05T04:14:19.712Z,91.0
2022-10-05T04:28:19.759Z,91.0
2022-10-05T04:42:19.756Z,92.0
2022-10-05T04:56:19.747Z,92.0
2022-10-05T05:10:19.877Z,93.0
2022-10-05T05:25:19.859Z,93.0
2022-10-05T05:40:19.973Z,94.0
2022-10-05T05:55:19.993Z,94.0
2022-10-05T06:10:20.037Z,93.0
2022-10-05T06:25:20.329Z,91.0
2022-10-05T06:40:20.576Z,89.0
2022-10-05T06:55:20.902Z,87.0
2022-10-05T07:10:20.828Z,86.0
2022-10-05T07:25:20.849Z,85.0
2022-10-05T07:40:20.901Z,80.0
2022-10-05T07:55:20.893Z,78.0
2022-10-05T08:10:20.945Z,77.0
2022-10-05T08:25:20.915Z,75.0
2022-10-05T08:40:20.955Z,76.0
2022-10-05T08:55:20.956Z,77.0
2022-10-05T09:10:21.022Z,75.0
2022-10-05T09:25:20.994Z,74.0
2022-10-05T09:40:20.978Z,71.0
2022-10-05T09:56:21.030Z,67.0
2022-10-05T10:11:20.984Z,65.0
2022-10-05T10:26:21.025Z,65.0
2022-10-05T10:41:21.358Z,66.0
2022-10-05T10:57:56.185Z,65.0
2022-10-05T11:12:56.190Z,66.0
2022-10-05T11:27:56.312Z,65.0
2022-10-05T11:42:56.300Z,63.0
2022-10-05T11:57:56.344Z,62.0
2022-10-05T12:12:56.634Z,65.0
2022-10-05T12:27:56.391Z,62.0
2022-10-05T12:42:58.723Z,64.0
2022-10-05T12:57:56.501Z,64.0
2022-10-05T13:12:58.758Z,59.0
2022-10-05T13:27:57.456Z,62.0
2022-10-05T13:42:57.804Z,63.0
2022-10-05T13:57:57.663Z,65.0
2022-10-05T14:12:57.658Z,64.0
2022-10-05T14:27:57.690Z,66.0
2022-10-05T14:42:57.909Z,63.0
2022-10-05T14:57:57.879Z,65.0
2022-10-05T15:12:58.005Z,65.0
2022-10-05T15:27:58.061Z,66.0
2022-10-05T15:42:57.953Z,68.0
2022-10-05T15:57:57.975Z,71.0
2022-10-05T16:12:57.969Z,75.0
2022-10-05T16:28:00.503Z,79.0
2022-10-05T16:42:58.143Z,84.0
2022-10-05T16:58:58.054Z,87.0
2022-10-05T17:13:58.036Z,89.0
2022-10-05T17:28:58.038Z,90.0
2022-10-05T17:35:29.677Z,90.0
2022-10-05T17:49:29.801Z,92.0
2022-10-05T18:03:30.494Z,93.0
2022-10-05T18:17:30.425Z,93.0
2022-10-05T18:31:30.675Z,93.0
2022-10-05T18:45:30.731Z,94.0
2022-10-05T18:59:31.297Z,94.0
2022-10-05T19:13:31.002Z,95.0
2022-10-05T19:27:31.092Z,95.0
2022-10-05T19:41:31.225Z,95.0
2022-10-05T19:55:31.257Z,95.0
2022-10-05T20:09:31.249Z,96.0
2022-10-05T20:23:31.410Z,96.0
2022-10-05T20:37:31.706Z,96.0
2022-10-05T20:51:31.891Z,96.0
2022-10-05T21:05:31.427Z,94.0
2022-10-05T21:19:31.470Z,93.0
2022-10-05T21:33:32.178Z,93.0
2022-10-05T21:47:31.506Z,94.0
2022-10-05T22:01:31.554Z,94.0
2022-10-05T22:15:31.530Z,95.0
2022-10-05T22:29:31.556Z,95.0
2022-10-05T22:43:31.524Z,96.0
2022-10-05T22:57:31.596Z,95.0
2022-10-05T23:11:31.581Z,94.0
2022-10-05T23:25:31.629Z,94.0
2022-10-05T23:39:31.669Z,95.0
2022-10-05T23:53:31.608Z,95.0
